createdAt,value
2018-09-17T00:00:37.982Z,59.29
2018-09-17T00:03:11.412Z,59.45
2018-09-17T00:05:44.767Z,59.24
2018-09-17T00:08:18.144Z,59.30
2018-09-17T00:10:51.523Z,59.57
2018-09-17T00:13:24.893Z,59.55
2018-09-17T00:15:58.283Z,59.35
2018-09-17T00:18:31.679Z,59.25
2018-09-17T00:21:05.080Z,59.78
2018-09-17T00:23:38.500Z,59.86
2018-09-17T00:26:11.871Z,59.83
2018-09-17T00:28:45.243Z,60.08
2018-09-17T00:31:18.682Z,60.15
2018-09-17T00:33:52.069Z,59.99
2018-09-17T00:36:25.442Z,60.27
2018-09-17T00:38:58.895Z,60.02
2018-09-17T00:41:32.261Z,60.08
2018-09-17T00:44:05.979Z,60.13
2018-09-17T00:46:39.334Z,59.89
2018-09-17T00:49:12.824Z,59.85
2018-09-17T00:51:46.227Z,59.83
2018-09-17T00:54:20.737Z,60.31
2018-09-17T00:56:54.109Z,60.25
2018-09-17T00:59:27.533Z,60.49
2018-09-17T01:02:07.603Z,60.30
2018-09-17T01:04:41.036Z,60.49
2018-09-17T01:07:14.411Z,60.19
2018-09-17T01:09:47.803Z,60.30
2018-09-17T01:12:21.284Z,60.76
2018-09-17T01:14:54.659Z,60.23
2018-09-17T01:17:28.002Z,60.30
2018-09-17T01:20:01.425Z,60.38
2018-09-17T01:22:34.808Z,60.42
2018-09-17T01:25:08.198Z,60.64
2018-09-17T01:27:41.556Z,60.38
2018-09-17T01:30:15.003Z,60.29
2018-09-17T01:32:48.356Z,60.68
2018-09-17T01:35:21.755Z,60.54
2018-09-17T01:37:55.204Z,60.50
2018-09-17T01:40:28.630Z,60.31
2018-09-17T01:43:01.995Z,60.48
2018-09-17T01:45:35.487Z,60.51
2018-09-17T01:48:08.878Z,60.85
2018-09-17T01:50:42.257Z,60.78
2018-09-17T01:53:15.634Z,60.84
2018-09-17T01:55:49.020Z,60.54
2018-09-17T01:58:22.383Z,60.52
2018-09-17T02:00:55.775Z,60.78
2018-09-17T02:03:29.136Z,60.66
2018-09-17T02:06:02.528Z,60.84
2018-09-17T02:08:35.971Z,60.98
2018-09-17T02:11:09.337Z,61.22
2018-09-17T02:13:42.739Z,61.30
2018-09-17T02:16:16.353Z,61.57
2018-09-17T02:18:49.838Z,61.30
2018-09-17T02:21:23.253Z,61.18
2018-09-17T02:23:56.607Z,61.22
2018-09-17T02:26:30.021Z,60.85
2018-09-17T02:29:03.376Z,60.79
2018-09-17T02:31:36.778Z,61.24
2018-09-17T02:34:10.161Z,60.97
2018-09-17T02:36:43.655Z,60.84
2018-09-17T02:39:17.016Z,60.98
2018-09-17T02:41:50.677Z,61.10
2018-09-17T02:44:24.050Z,61.44
2018-09-17T02:46:57.439Z,61.36
2018-09-17T02:49:30.818Z,61.25
2018-09-17T02:52:04.254Z,61.34
2018-09-17T02:54:37.619Z,61.27
2018-09-17T02:57:10.988Z,61.78
2018-09-17T02:59:44.360Z,61.55
2018-09-17T03:02:17.748Z,61.65
2018-09-17T03:04:51.122Z,61.56
2018-09-17T03:07:24.616Z,61.37
2018-09-17T03:09:58.031Z,61.29
2018-09-17T03:12:31.443Z,61.59
2018-09-17T03:15:16.163Z,61.34
2018-09-17T03:17:49.560Z,61.30
2018-09-17T03:20:22.937Z,61.68
2018-09-17T03:22:56.315Z,61.45
2018-09-17T03:25:29.709Z,61.32
2018-09-17T03:28:03.145Z,61.35
2018-09-17T03:30:36.529Z,61.57
2018-09-17T03:33:09.945Z,61.60
2018-09-17T03:35:43.324Z,61.70
2018-09-17T03:38:48.687Z,61.30
2018-09-17T03:41:22.078Z,61.17
2018-09-17T03:43:55.516Z,61.26
2018-09-17T03:46:28.934Z,61.30
2018-09-17T03:49:02.298Z,61.42
2018-09-17T03:51:35.668Z,61.66
2018-09-17T03:54:09.064Z,61.81
2018-09-17T03:56:42.453Z,61.55
2018-09-17T03:59:15.860Z,61.59
2018-09-17T04:01:50.151Z,61.71
2018-09-17T04:04:23.532Z,62.23
2018-09-17T04:06:56.947Z,62.67
2018-09-17T04:09:30.434Z,62.63
2018-09-17T04:12:03.971Z,62.75
2018-09-17T04:14:37.341Z,62.56
2018-09-17T04:17:10.843Z,62.34
2018-09-17T04:19:44.210Z,62.25
2018-09-17T04:22:17.615Z,62.43
2018-09-17T04:24:51.022Z,62.37
2018-09-17T04:27:24.413Z,62.30
2018-09-17T04:29:57.788Z,62.36
2018-09-17T04:32:31.261Z,62.61
2018-09-17T04:35:05.783Z,62.70
2018-09-17T04:37:39.942Z,63.11
2018-09-17T04:40:13.392Z,62.91
2018-09-17T04:42:46.800Z,62.93
2018-09-17T04:45:20.198Z,62.69
2018-09-17T04:47:53.579Z,63.08
2018-09-17T04:50:26.939Z,63.05
2018-09-17T04:53:00.655Z,63.00
2018-09-17T04:55:34.116Z,62.95
2018-09-17T04:58:07.513Z,63.13
2018-09-17T05:00:40.899Z,62.81
2018-09-17T05:03:14.328Z,63.16
2018-09-17T05:05:47.683Z,63.03
2018-09-17T05:08:21.149Z,62.81
2018-09-17T05:10:54.530Z,62.68
2018-09-17T05:13:28.027Z,63.05
2018-09-17T05:16:01.298Z,62.98
2018-09-17T05:18:34.691Z,62.82
2018-09-17T05:21:08.125Z,62.55
2018-09-17T05:23:41.521Z,62.52
2018-09-17T05:26:14.877Z,62.76
2018-09-17T05:28:48.259Z,62.49
2018-09-17T05:31:21.659Z,62.20
2018-09-17T05:33:55.018Z,62.51
2018-09-17T05:36:28.538Z,62.46
2018-09-17T05:39:01.923Z,62.10
2018-09-17T05:41:35.292Z,61.97
2018-09-17T05:44:08.671Z,62.13
2018-09-17T05:46:42.023Z,62.14
2018-09-17T05:49:15.395Z,62.26
2018-09-17T05:51:48.850Z,62.35
2018-09-17T05:54:22.246Z,62.32
2018-09-17T05:56:55.618Z,62.64
2018-09-17T05:59:29.050Z,62.95
2018-09-17T06:02:02.383Z,62.82
2018-09-17T06:04:35.786Z,62.95
2018-09-17T06:07:09.251Z,62.77
2018-09-17T06:09:42.605Z,62.67
2018-09-17T06:12:15.966Z,62.76
2018-09-17T06:14:49.359Z,63.22
2018-09-17T06:17:22.766Z,63.13
2018-09-17T06:19:56.175Z,63.00
2018-09-17T06:22:29.534Z,62.71
2018-09-17T06:25:03.328Z,62.71
2018-09-17T06:27:36.737Z,62.65
2018-09-17T06:30:10.122Z,62.33
2018-09-17T06:32:43.567Z,62.38
2018-09-17T06:35:16.917Z,61.99
2018-09-17T06:37:50.319Z,61.72
2018-09-17T06:40:23.654Z,61.99
2018-09-17T06:42:57.090Z,61.59
2018-09-17T06:45:30.466Z,61.02
2018-09-17T06:48:03.906Z,60.94
2018-09-17T06:50:37.276Z,60.80
2018-09-17T06:53:10.598Z,61.43
2018-09-17T06:55:43.951Z,61.10
2018-09-17T06:58:17.274Z,61.13
2018-09-17T07:00:50.630Z,61.21
2018-09-17T07:03:24.022Z,61.63
2018-09-17T07:05:58.520Z,61.48
2018-09-17T07:08:31.855Z,60.71
2018-09-17T07:11:05.337Z,60.31
2018-09-17T07:13:38.671Z,60.61
2018-09-17T07:16:12.120Z,62.23
2018-09-17T07:18:45.477Z,62.31
2018-09-17T07:21:18.834Z,61.25
2018-09-17T07:23:52.186Z,60.63
2018-09-17T07:26:25.716Z,60.28
2018-09-17T07:28:59.452Z,60.09
2018-09-17T07:31:32.876Z,59.64
2018-09-17T07:34:06.358Z,59.92
2018-09-17T07:36:39.759Z,60.35
2018-09-17T07:39:13.117Z,60.38
2018-09-17T07:41:46.571Z,60.75
2018-09-17T07:44:19.962Z,59.59
2018-09-17T07:46:53.404Z,59.46
2018-09-17T07:49:26.763Z,58.73
2018-09-17T07:52:00.115Z,57.25
2018-09-17T07:54:33.478Z,57.67
2018-09-17T07:57:07.014Z,57.16
2018-09-17T07:59:40.471Z,56.19
2018-09-17T08:02:14.177Z,56.61
2018-09-17T08:04:47.541Z,56.12
2018-09-17T08:07:20.926Z,55.17
2018-09-17T08:09:54.354Z,54.02
2018-09-17T08:12:27.779Z,54.09
2018-09-17T08:15:01.132Z,52.75
2018-09-17T08:17:34.481Z,51.91
2018-09-17T08:20:08.145Z,51.18
2018-09-17T08:22:41.824Z,51.36
2018-09-17T08:25:15.177Z,51.25
2018-09-17T08:27:48.498Z,49.98
2018-09-17T08:30:21.846Z,49.39
2018-09-17T08:32:55.170Z,48.74
2018-09-17T08:35:28.529Z,47.55
2018-09-17T08:38:01.864Z,48.44
2018-09-17T08:40:35.222Z,46.81
2018-09-17T08:43:08.541Z,46.66
2018-09-17T08:45:41.928Z,46.47
2018-09-17T08:48:15.205Z,45.84
2018-09-17T08:50:48.567Z,44.42
2018-09-17T08:53:21.982Z,43.87
2018-09-17T08:56:04.578Z,44.48
2018-09-17T08:58:43.349Z,42.72
2018-09-17T09:03:59.800Z,42.06
2018-09-17T09:06:38.394Z,39.92
2018-09-17T09:09:12.864Z,38.47
2018-09-17T09:11:52.147Z,37.50
2018-09-17T09:14:30.788Z,37.69
2018-09-17T09:17:04.170Z,36.63
2018-09-17T09:19:37.582Z,38.38
2018-09-17T09:22:10.944Z,38.47
2018-09-17T09:24:44.273Z,38.62
2018-09-17T09:27:17.615Z,37.54
2018-09-17T09:29:50.954Z,37.97
2018-09-17T09:32:24.358Z,38.68
2018-09-17T09:34:57.689Z,37.51
2018-09-17T09:37:31.157Z,37.75
2018-09-17T09:40:04.580Z,37.43
2018-09-17T09:42:37.951Z,37.75
2018-09-17T09:45:11.282Z,37.80
2018-09-17T09:47:45.270Z,37.61
2018-09-17T09:50:18.595Z,37.96
2018-09-17T09:52:52.017Z,37.76
2018-09-17T09:55:25.334Z,37.99
2018-09-17T09:57:58.690Z,37.42
2018-09-17T10:01:40.991Z,38.22
2018-09-17T10:04:19.778Z,37.90
2018-09-17T10:06:53.534Z,37.84
2018-09-17T10:09:32.285Z,37.48
2018-09-17T10:12:10.805Z,36.32
2018-09-17T10:14:49.440Z,35.91
2018-09-17T10:17:27.913Z,36.54
2018-09-17T10:20:01.255Z,37.22
2018-09-17T10:22:34.671Z,36.87
2018-09-17T10:25:08.002Z,36.66
2018-09-17T10:27:41.368Z,36.29
2018-09-17T10:30:14.741Z,36.00
2018-09-17T10:32:48.093Z,35.34
2018-09-17T10:35:21.425Z,35.46
2018-09-17T10:37:54.793Z,36.11
2018-09-17T10:40:28.120Z,35.42
2018-09-17T10:43:01.484Z,35.52
2018-09-17T10:45:34.870Z,35.63
2018-09-17T10:48:08.238Z,36.15
2018-09-17T10:50:41.571Z,35.37
2018-09-17T10:53:14.917Z,35.71
2018-09-17T10:55:48.242Z,36.20
2018-09-17T10:58:21.608Z,36.58
2018-09-17T11:00:54.941Z,35.74
2018-09-17T11:03:28.282Z,35.94
2018-09-17T11:06:01.623Z,35.92
2018-09-17T11:08:34.959Z,36.69
2018-09-17T11:11:08.362Z,36.08
2018-09-17T11:13:41.720Z,36.71
2018-09-17T11:16:15.054Z,36.47
2018-09-17T11:18:48.409Z,36.92
2018-09-17T11:21:21.748Z,36.25
2018-09-17T11:23:55.105Z,36.79
2018-09-17T11:26:28.421Z,35.64
2018-09-17T11:29:01.778Z,35.95
2018-09-17T11:31:35.157Z,35.07
2018-09-17T11:34:08.496Z,35.98
2018-09-17T11:36:41.831Z,36.02
2018-09-17T11:39:15.173Z,34.82
2018-09-17T11:41:48.514Z,35.27
2018-09-17T11:44:21.868Z,35.92
2018-09-17T11:46:55.188Z,34.16
2018-09-17T11:49:28.530Z,34.19
2018-09-17T11:52:01.872Z,34.32
2018-09-17T11:54:35.247Z,34.15
2018-09-17T11:57:08.572Z,33.67
2018-09-17T11:59:41.937Z,33.60
2018-09-17T12:02:20.512Z,33.50
2018-09-17T12:04:56.856Z,32.85
2018-09-17T12:07:39.695Z,33.55
2018-09-17T12:10:13.073Z,33.82
2018-09-17T12:12:46.404Z,34.01
2018-09-17T12:15:19.782Z,32.48
2018-09-17T12:17:53.133Z,31.89
2018-09-17T12:20:26.494Z,33.33
2018-09-17T12:22:59.829Z,32.53
2018-09-17T12:25:33.234Z,32.36
2018-09-17T12:28:06.924Z,32.06
2018-09-17T12:30:40.289Z,32.13
2018-09-17T12:33:13.626Z,32.38
2018-09-17T12:35:46.989Z,31.74
2018-09-17T12:38:20.793Z,31.93
2018-09-17T12:40:54.160Z,32.46
2018-09-17T12:43:27.494Z,32.23
2018-09-17T12:46:00.901Z,32.53
2018-09-17T12:48:34.214Z,33.35
2018-09-17T12:51:07.579Z,31.51
2018-09-17T12:53:40.959Z,32.90
2018-09-17T12:56:14.338Z,32.98
2018-09-17T12:58:47.703Z,33.20
2018-09-17T13:01:21.050Z,33.32
2018-09-17T13:03:54.403Z,32.59
2018-09-17T13:06:27.754Z,32.24
2018-09-17T13:09:01.123Z,32.04
2018-09-17T13:11:34.500Z,31.98
2018-09-17T13:14:07.888Z,31.62
2018-09-17T13:16:41.263Z,32.45
2018-09-17T13:19:14.594Z,31.64
2018-09-17T13:21:47.965Z,32.26
2018-09-17T13:24:21.318Z,31.79
2018-09-17T13:26:54.707Z,31.68
2018-09-17T13:29:28.036Z,31.57
2018-09-17T13:32:01.451Z,32.89
2018-09-17T13:34:34.757Z,32.98
2018-09-17T13:37:08.165Z,31.92
2018-09-17T13:39:41.536Z,33.05
2018-09-17T13:42:14.925Z,32.00
2018-09-17T13:44:48.272Z,31.50
2018-09-17T13:47:21.658Z,31.97
2018-09-17T13:49:55.059Z,32.95
2018-09-17T13:52:28.460Z,33.11
2018-09-17T13:55:01.915Z,32.84
2018-09-17T13:57:35.326Z,32.70
2018-09-17T14:00:08.704Z,31.92
2018-09-17T14:02:42.164Z,31.09
2018-09-17T14:05:15.531Z,32.43
2018-09-17T14:07:48.883Z,31.76
2018-09-17T14:10:22.331Z,31.88
2018-09-17T14:12:55.641Z,32.10
2018-09-17T14:15:28.998Z,31.67
2018-09-17T14:18:02.355Z,31.49
2018-09-17T14:20:35.709Z,32.29
2018-09-17T14:23:09.333Z,32.15
2018-09-17T14:25:42.754Z,31.25
2018-09-17T14:28:16.199Z,31.24
2018-09-17T14:30:49.690Z,32.60
2018-09-17T14:33:28.413Z,31.90
2018-09-17T14:36:02.054Z,32.33
2018-09-17T14:38:35.645Z,33.12
2018-09-17T14:41:09.101Z,32.46
2018-09-17T14:43:42.478Z,32.38
2018-09-17T14:46:16.408Z,31.88
2018-09-17T14:48:51.234Z,31.72
2018-09-17T14:51:24.764Z,32.41
2018-09-17T14:54:00.892Z,32.10
2018-09-17T14:56:34.416Z,31.43
2018-09-17T14:59:07.789Z,31.58
2018-09-17T15:01:41.205Z,31.54
2018-09-17T15:04:14.674Z,32.50
2018-09-17T15:06:48.111Z,33.04
2018-09-17T15:09:21.511Z,33.53
2018-09-17T15:11:55.054Z,33.34
2018-09-17T15:14:28.475Z,32.84
2018-09-17T15:17:01.952Z,33.14
2018-09-17T15:19:35.287Z,34.26
2018-09-17T15:22:08.682Z,33.54
2018-09-17T15:24:42.031Z,33.98
2018-09-17T15:27:15.485Z,33.91
2018-09-17T15:29:48.861Z,33.16
2018-09-17T15:32:22.377Z,33.62
2018-09-17T15:34:55.750Z,34.67
2018-09-17T15:37:29.254Z,34.18
2018-09-17T15:40:02.658Z,35.08
2018-09-17T15:42:35.974Z,33.91
2018-09-17T15:45:09.298Z,34.32
2018-09-17T15:47:42.645Z,33.69
2018-09-17T15:50:16.046Z,33.98
2018-09-17T15:52:49.392Z,34.42
2018-09-17T15:55:22.834Z,34.22
2018-09-17T15:57:56.302Z,34.48
2018-09-17T16:00:29.606Z,34.60
2018-09-17T16:03:03.194Z,34.47
2018-09-17T16:05:36.660Z,35.13
2018-09-17T16:08:11.372Z,35.77
2018-09-17T16:10:56.350Z,34.47
2018-09-17T16:13:30.109Z,34.33
2018-09-17T16:16:03.485Z,34.62
2018-09-17T16:18:36.834Z,35.55
2018-09-17T16:21:10.217Z,35.52
2018-09-17T16:23:43.543Z,36.03
2018-09-17T16:26:17.383Z,35.90
2018-09-17T16:28:50.762Z,36.08
2018-09-17T16:31:24.210Z,36.47
2018-09-17T16:33:58.154Z,36.40
2018-09-17T16:36:31.489Z,37.25
2018-09-17T16:39:07.355Z,37.08
2018-09-17T16:41:40.688Z,36.96
2018-09-17T16:44:14.051Z,37.17
2018-09-17T16:46:47.474Z,37.50
2018-09-17T16:49:21.027Z,36.41
2018-09-17T16:51:54.363Z,36.64
2018-09-17T16:54:27.710Z,37.14
2018-09-17T16:57:01.114Z,37.80
2018-09-17T16:59:34.492Z,38.23
2018-09-17T17:02:07.821Z,38.47
2018-09-17T17:04:41.204Z,38.56
2018-09-17T17:07:14.563Z,38.40
2018-09-17T17:09:47.921Z,38.62
2018-09-17T17:12:21.504Z,38.62
2018-09-17T17:14:54.856Z,38.86
2018-09-17T17:17:28.177Z,39.36
2018-09-17T17:20:01.518Z,40.23
2018-09-17T17:22:35.724Z,40.09
2018-09-17T17:25:09.103Z,39.85
2018-09-17T17:27:42.642Z,39.73
2018-09-17T17:30:16.245Z,39.89
2018-09-17T17:32:50.097Z,40.03
2018-09-17T17:35:23.814Z,40.09
2018-09-17T17:37:57.685Z,40.53
2018-09-17T17:40:31.307Z,40.21
2018-09-17T17:43:04.981Z,41.23
2018-09-17T17:45:38.551Z,42.14
2018-09-17T17:48:11.882Z,42.46
2018-09-17T17:50:45.498Z,43.18
2018-09-17T17:53:19.227Z,43.58
2018-09-17T17:55:53.102Z,43.32
2018-09-17T17:58:26.724Z,43.55
2018-09-17T18:01:00.455Z,44.09
2018-09-17T18:03:34.022Z,44.28
2018-09-17T18:06:07.398Z,44.16
2018-09-17T18:08:41.146Z,44.11
2018-09-17T18:11:14.881Z,44.39
2018-09-17T18:13:49.133Z,44.50
2018-09-17T18:16:26.951Z,44.85
2018-09-17T18:19:01.888Z,44.93
2018-09-17T18:21:35.571Z,44.86
2018-09-17T18:24:09.121Z,44.85
2018-09-17T18:26:42.654Z,45.25
2018-09-17T18:29:16.320Z,45.00
2018-09-17T18:31:49.703Z,45.22
2018-09-17T18:34:23.237Z,45.07
2018-09-17T18:36:56.847Z,45.35
2018-09-17T18:39:30.817Z,45.08
2018-09-17T18:42:04.189Z,45.69
2018-09-17T18:44:38.101Z,45.28
2018-09-17T18:47:11.462Z,45.69
2018-09-17T18:49:45.230Z,46.04
2018-09-17T18:52:18.660Z,46.49
2018-09-17T18:54:52.347Z,46.33
2018-09-17T18:57:26.057Z,46.34
2018-09-17T18:59:59.452Z,46.89
2018-09-17T19:02:32.971Z,47.09
2018-09-17T19:05:06.463Z,47.32
2018-09-17T19:07:40.896Z,47.18
2018-09-17T19:10:14.348Z,47.88
2018-09-17T19:12:47.966Z,48.14
2018-09-17T19:15:26.711Z,49.23
2018-09-17T19:18:05.390Z,48.60
2018-09-17T19:20:38.979Z,49.05
2018-09-17T19:23:17.386Z,49.22
2018-09-17T19:25:50.886Z,49.19
2018-09-17T19:28:29.378Z,49.31
2018-09-17T19:31:02.779Z,49.54
2018-09-17T19:33:36.108Z,49.46
2018-09-17T19:36:09.848Z,49.09
2018-09-17T19:38:48.475Z,49.39
2018-09-17T19:41:22.308Z,49.42
2018-09-17T19:43:56.384Z,49.19
2018-09-17T19:46:29.694Z,49.99
2018-09-17T19:49:03.568Z,50.51
2018-09-17T19:51:42.251Z,50.63
2018-09-17T19:54:15.593Z,50.41
2018-09-17T19:56:48.934Z,50.84
2018-09-17T19:59:27.538Z,51.06
2018-09-17T20:02:00.885Z,50.96
2018-09-17T20:04:39.714Z,51.33
2018-09-17T20:07:13.030Z,50.94
2018-09-17T20:12:44.551Z,50.21
2018-09-17T20:15:17.873Z,50.46
2018-09-17T20:17:51.217Z,51.02
2018-09-17T20:20:24.598Z,51.04
2018-09-17T20:22:57.992Z,50.96
2018-09-17T20:25:31.406Z,51.41
2018-09-17T20:28:04.730Z,51.31
2018-09-17T20:30:38.083Z,52.03
2018-09-17T20:33:11.441Z,51.78
2018-09-17T20:35:44.818Z,52.13
2018-09-17T20:38:18.173Z,52.17
2018-09-17T20:40:51.550Z,53.17
2018-09-17T20:43:24.882Z,52.26
2018-09-17T20:45:58.229Z,53.23
2018-09-17T20:48:31.604Z,52.91
2018-09-17T20:51:04.927Z,52.91
2018-09-17T20:53:38.252Z,52.92
2018-09-17T20:56:11.642Z,52.87
2018-09-17T20:58:44.980Z,52.21
2018-09-17T21:01:18.437Z,52.95
2018-09-17T21:03:51.763Z,52.57
2018-09-17T21:06:25.177Z,52.74
2018-09-17T21:08:58.507Z,52.64
2018-09-17T21:11:31.891Z,52.61
2018-09-17T21:14:05.622Z,52.76
2018-09-17T21:16:39.362Z,53.10
2018-09-17T21:19:12.685Z,53.37
2018-09-17T21:21:46.072Z,53.13
2018-09-17T21:24:19.367Z,54.29
2018-09-17T21:26:52.745Z,53.89
2018-09-17T21:29:26.071Z,54.02
2018-09-17T21:31:59.426Z,53.57
2018-09-17T21:34:32.802Z,53.89
2018-09-17T21:37:06.300Z,53.89
2018-09-17T21:39:39.581Z,53.59
2018-09-17T21:42:12.946Z,53.49
2018-09-17T21:44:46.341Z,53.50
2018-09-17T21:47:19.761Z,53.66
2018-09-17T21:49:53.091Z,53.55
2018-09-17T21:52:26.440Z,53.92
2018-09-17T21:54:59.776Z,54.18
2018-09-17T21:57:33.114Z,54.32
2018-09-17T22:00:06.489Z,54.56
2018-09-17T22:02:39.843Z,54.56
2018-09-17T22:05:13.221Z,54.64
2018-09-17T22:07:46.602Z,54.92
2018-09-17T22:10:19.954Z,55.18
2018-09-17T22:12:53.297Z,54.94
2018-09-17T22:15:26.614Z,54.99
2018-09-17T22:17:59.981Z,54.61
2018-09-17T22:20:33.559Z,55.55
2018-09-17T22:23:06.953Z,54.97
2018-09-17T22:25:40.280Z,54.96
2018-09-17T22:28:13.657Z,54.83
2018-09-17T22:30:46.989Z,54.48
2018-09-17T22:33:20.401Z,54.73
2018-09-17T22:35:53.724Z,55.03
2018-09-17T22:38:27.084Z,54.86
2018-09-17T22:41:00.419Z,55.33
2018-09-17T22:43:33.798Z,55.14
2018-09-17T22:46:07.143Z,55.30
2018-09-17T22:48:40.506Z,55.47
2018-09-17T22:51:13.848Z,55.40
2018-09-17T22:53:47.196Z,55.62
2018-09-17T22:56:20.542Z,55.43
2018-09-17T22:58:53.885Z,55.68
2018-09-17T23:01:27.255Z,55.41
2018-09-17T23:04:00.593Z,55.66
2018-09-17T23:06:33.928Z,55.38
2018-09-17T23:09:08.921Z,55.56
2018-09-17T23:11:42.245Z,55.68
2018-09-17T23:14:15.577Z,55.79
2018-09-17T23:16:48.878Z,56.05
2018-09-17T23:19:22.738Z,56.06
2018-09-17T23:21:56.075Z,56.26
2018-09-17T23:24:29.401Z,56.32
2018-09-17T23:27:02.726Z,56.33
2018-09-17T23:29:36.045Z,56.86
2018-09-17T23:32:09.382Z,56.68
2018-09-17T23:34:42.787Z,57.04
2018-09-17T23:37:16.189Z,57.29
2018-09-17T23:39:49.513Z,57.25
2018-09-17T23:42:22.809Z,57.69
2018-09-17T23:44:56.129Z,57.47
2018-09-17T23:47:29.442Z,57.56
2018-09-17T23:50:02.763Z,57.84
2018-09-17T23:52:36.058Z,57.09
2018-09-17T23:55:09.431Z,57.63
2018-09-17T23:57:42.740Z,57.47
